sensor_id;sensor_type;location;lat;lon;timestamp;temperature;humidity
17146;DHT22;8688;54.444;18.444;2023-12-20T00:01:36;7.00;99.90
17146;DHT22;8688;54.444;18.444;2023-12-20T00:04:06;7.00;99.90
17146;DHT22;8688;54.444;18.444;2023-12-20T00:06:34;7.00;99.90
17146;DHT22;8688;54.444;18.444;2023-12-20T00:09:01;7.00;99.90
17146;DHT22;8688;54.444;18.444;2023-12-20T00:11:29;7.00;99.90
17146;DHT22;8688;54.444;18.444;2023-12-20T00:13:56;7.00;99.90
17146;DHT22;8688;54.444;18.444;2023-12-20T00:16:24;7.00;99.90
17146;DHT22;8688;54.444;18.444;2023-12-20T00:18:53;6.90;99.90
17146;DHT22;8688;54.444;18.444;2023-12-20T00:21:24;6.90;99.90
17146;DHT22;8688;54.444;18.444;2023-12-20T00:23:51;6.90;99.90
17146;DHT22;8688;54.444;18.444;2023-12-20T00:26:19;6.90;99.90
17146;DHT22;8688;54.444;18.444;2023-12-20T00:28:46;6.80;99.90
17146;DHT22;8688;54.444;18.444;2023-12-20T00:31:14;6.80;99.90
17146;DHT22;8688;54.444;18.444;2023-12-20T00:33:41;6.70;99.90
17146;DHT22;8688;54.444;18.444;2023-12-20T00:36:11;6.70;99.90
17146;DHT22;8688;54.444;18.444;2023-12-20T00:38:39;6.60;99.90
17146;DHT22;8688;54.444;18.444;2023-12-20T00:41:06;6.50;99.90
17146;DHT22;8688;54.444;18.444;2023-12-20T00:43:34;6.50;99.90
17146;DHT22;8688;54.444;18.444;2023-12-20T00:46:01;6.40;80.90
17146;DHT22;8688;54.444;18.444;2023-12-20T00:48:29;6.40;24.60
17146;DHT22;8688;54.444;18.444;2023-12-20T00:50:57;6.40;21.30
17146;DHT22;8688;54.444;18.444;2023-12-20T00:53:26;6.30;1.00
17146;DHT22;8688;54.444;18.444;2023-12-20T00:55:54;6.20;1.00
17146;DHT22;8688;54.444;18.444;2023-12-20T00:58:22;6.20;1.00
17146;DHT22;8688;54.444;18.444;2023-12-20T01:00:49;6.10;1.00
17146;DHT22;8688;54.444;18.444;2023-12-20T01:03:17;6.10;1.00
17146;DHT22;8688;54.444;18.444;2023-12-20T01:05:43;6.00;1.00
17146;DHT22;8688;54.444;18.444;2023-12-20T01:08:11;5.90;1.00
17146;DHT22;8688;54.444;18.444;2023-12-20T01:10:40;5.90;1.00
17146;DHT22;8688;54.444;18.444;2023-12-20T01:13:07;5.80;1.00
17146;DHT22;8688;54.444;18.444;2023-12-20T01:15:35;5.70;1.00
17146;DHT22;8688;54.444;18.444;2023-12-20T01:18:03;5.70;1.00
17146;DHT22;8688;54.444;18.444;2023-12-20T01:20:31;5.70;1.00
17146;DHT22;8688;54.444;18.444;2023-12-20T01:22:58;5.70;1.00
17146;DHT22;8688;54.444;18.444;2023-12-20T01:25:26;5.60;1.00
17146;DHT22;8688;54.444;18.444;2023-12-20T01:27:56;5.60;1.00
17146;DHT22;8688;54.444;18.444;2023-12-20T01:30:23;5.50;1.00
17146;DHT22;8688;54.444;18.444;2023-12-20T01:32:52;5.50;1.00
17146;DHT22;8688;54.444;18.444;2023-12-20T01:35:20;5.50;1.00
17146;DHT22;8688;54.444;18.444;2023-12-20T01:37:47;5.40;1.00
17146;DHT22;8688;54.444;18.444;2023-12-20T01:40:15;5.30;1.00
17146;DHT22;8688;54.444;18.444;2023-12-20T01:42:42;5.30;1.00
17146;DHT22;8688;54.444;18.444;2023-12-20T01:45:11;5.30;1.00
17146;DHT22;8688;54.444;18.444;2023-12-20T01:47:39;5.20;1.00
17146;DHT22;8688;54.444;18.444;2023-12-20T01:50:07;5.20;1.00
17146;DHT22;8688;54.444;18.444;2023-12-20T01:52:35;5.20;1.00
17146;DHT22;8688;54.444;18.444;2023-12-20T01:55:04;5.20;1.00
17146;DHT22;8688;54.444;18.444;2023-12-20T01:57:38;5.10;1.00
17146;DHT22;8688;54.444;18.444;2023-12-20T02:00:07;5.10;1.00
17146;DHT22;8688;54.444;18.444;2023-12-20T02:02:40;5.10;1.00
17146;DHT22;8688;54.444;18.444;2023-12-20T02:05:10;5.10;1.00
17146;DHT22;8688;54.444;18.444;2023-12-20T02:07:38;5.10;1.00
17146;DHT22;8688;54.444;18.444;2023-12-20T02:10:06;5.10;1.00
17146;DHT22;8688;54.444;18.444;2023-12-20T02:12:33;5.10;1.00
17146;DHT22;8688;54.444;18.444;2023-12-20T02:15:01;5.20;1.00
17146;DHT22;8688;54.444;18.444;2023-12-20T02:17:30;5.10;1.00
17146;DHT22;8688;54.444;18.444;2023-12-20T02:20:00;5.10;1.00
17146;DHT22;8688;54.444;18.444;2023-12-20T02:22:29;5.10;1.00
17146;DHT22;8688;54.444;18.444;2023-12-20T02:24:57;5.10;1.00
17146;DHT22;8688;54.444;18.444;2023-12-20T02:27:25;5.10;1.00
17146;DHT22;8688;54.444;18.444;2023-12-20T02:29:52;5.10;1.00
17146;DHT22;8688;54.444;18.444;2023-12-20T02:32:20;5.00;1.00
17146;DHT22;8688;54.444;18.444;2023-12-20T02:34:49;5.00;1.00
17146;DHT22;8688;54.444;18.444;2023-12-20T02:37:16;5.10;1.00
17146;DHT22;8688;54.444;18.444;2023-12-20T02:39:45;5.10;1.00
17146;DHT22;8688;54.444;18.444;2023-12-20T02:42:13;5.10;1.00
17146;DHT22;8688;54.444;18.444;2023-12-20T02:44:40;5.10;1.00
17146;DHT22;8688;54.444;18.444;2023-12-20T02:47:08;5.10;1.00
17146;DHT22;8688;54.444;18.444;2023-12-20T02:49:36;5.10;1.00
17146;DHT22;8688;54.444;18.444;2023-12-20T02:52:04;5.20;1.00
17146;DHT22;8688;54.444;18.444;2023-12-20T02:54:32;5.10;1.00
17146;DHT22;8688;54.444;18.444;2023-12-20T02:57:01;5.10;1.00
17146;DHT22;8688;54.444;18.444;2023-12-20T02:59:28;5.10;1.00
17146;DHT22;8688;54.444;18.444;2023-12-20T03:01:56;5.10;1.00
17146;DHT22;8688;54.444;18.444;2023-12-20T03:04:24;5.00;1.00
17146;DHT22;8688;54.444;18.444;2023-12-20T03:06:51;5.00;1.00
17146;DHT22;8688;54.444;18.444;2023-12-20T03:09:19;5.00;1.00
17146;DHT22;8688;54.444;18.444;2023-12-20T03:11:46;5.00;1.00
17146;DHT22;8688;54.444;18.444;2023-12-20T03:14:15;5.00;1.00
17146;DHT22;8688;54.444;18.444;2023-12-20T03:16:47;5.10;1.00
17146;DHT22;8688;54.444;18.444;2023-12-20T03:19:15;5.10;1.00
17146;DHT22;8688;54.444;18.444;2023-12-20T03:21:43;5.10;1.00
17146;DHT22;8688;54.444;18.444;2023-12-20T03:24:10;5.10;1.00
17146;DHT22;8688;54.444;18.444;2023-12-20T03:26:38;5.10;1.00
17146;DHT22;8688;54.444;18.444;2023-12-20T03:29:05;5.10;1.00
17146;DHT22;8688;54.444;18.444;2023-12-20T03:31:34;5.10;1.00
17146;DHT22;8688;54.444;18.444;2023-12-20T03:34:02;5.10;1.00
17146;DHT22;8688;54.444;18.444;2023-12-20T03:36:29;5.10;1.00
17146;DHT22;8688;54.444;18.444;2023-12-20T03:38:57;5.10;1.00
17146;DHT22;8688;54.444;18.444;2023-12-20T03:41:24;5.00;1.00
17146;DHT22;8688;54.444;18.444;2023-12-20T03:43:52;5.00;1.00
17146;DHT22;8688;54.444;18.444;2023-12-20T03:46:19;5.00;1.00
17146;DHT22;8688;54.444;18.444;2023-12-20T03:48:48;5.00;1.00
17146;DHT22;8688;54.444;18.444;2023-12-20T03:51:15;4.90;1.00
17146;DHT22;8688;54.444;18.444;2023-12-20T03:53:43;4.90;1.00
17146;DHT22;8688;54.444;18.444;2023-12-20T03:56:10;4.90;1.00
17146;DHT22;8688;54.444;18.444;2023-12-20T03:58:38;4.80;1.00
17146;DHT22;8688;54.444;18.444;2023-12-20T04:01:09;4.80;1.00
17146;DHT22;8688;54.444;18.444;2023-12-20T04:03:38;4.80;1.00
17146;DHT22;8688;54.444;18.444;2023-12-20T04:06:07;4.80;1.00
17146;DHT22;8688;54.444;18.444;2023-12-20T04:08:35;4.80;1.00
17146;DHT22;8688;54.444;18.444;2023-12-20T04:11:03;4.80;1.00
17146;DHT22;8688;54.444;18.444;2023-12-20T04:13:30;4.70;1.00
17146;DHT22;8688;54.444;18.444;2023-12-20T04:15:58;4.70;1.00
17146;DHT22;8688;54.444;18.444;2023-12-20T04:18:25;4.70;1.00
17146;DHT22;8688;54.444;18.444;2023-12-20T04:20:54;4.70;1.00
17146;DHT22;8688;54.444;18.444;2023-12-20T04:23:23;4.60;1.00
17146;DHT22;8688;54.444;18.444;2023-12-20T04:25:50;4.60;1.00
17146;DHT22;8688;54.444;18.444;2023-12-20T04:28:18;4.60;1.00
17146;DHT22;8688;54.444;18.444;2023-12-20T04:30:45;4.50;1.00
17146;DHT22;8688;54.444;18.444;2023-12-20T04:33:13;4.60;1.00
17146;DHT22;8688;54.444;18.444;2023-12-20T04:35:40;4.50;1.00
17146;DHT22;8688;54.444;18.444;2023-12-20T04:38:08;4.50;1.00
17146;DHT22;8688;54.444;18.444;2023-12-20T04:40:37;4.50;1.00
17146;DHT22;8688;54.444;18.444;2023-12-20T04:43:07;4.40;1.00
17146;DHT22;8688;54.444;18.444;2023-12-20T04:45:35;4.40;1.00
17146;DHT22;8688;54.444;18.444;2023-12-20T04:48:03;4.40;1.00
17146;DHT22;8688;54.444;18.444;2023-12-20T04:50:32;4.40;1.00
17146;DHT22;8688;54.444;18.444;2023-12-20T04:53:03;4.30;1.00
17146;DHT22;8688;54.444;18.444;2023-12-20T04:55:30;4.30;1.00
17146;DHT22;8688;54.444;18.444;2023-12-20T04:57:59;4.30;1.00
17146;DHT22;8688;54.444;18.444;2023-12-20T05:00:27;4.30;1.00
17146;DHT22;8688;54.444;18.444;2023-12-20T05:02:55;4.20;1.00
17146;DHT22;8688;54.444;18.444;2023-12-20T05:05:26;4.10;1.00
17146;DHT22;8688;54.444;18.444;2023-12-20T05:07:54;4.10;1.00
17146;DHT22;8688;54.444;18.444;2023-12-20T05:10:23;4.10;1.00
17146;DHT22;8688;54.444;18.444;2023-12-20T05:12:54;4.00;1.00
17146;DHT22;8688;54.444;18.444;2023-12-20T05:15:25;4.00;1.00
17146;DHT22;8688;54.444;18.444;2023-12-20T05:17:53;4.10;1.00
17146;DHT22;8688;54.444;18.444;2023-12-20T05:20:20;4.00;1.00
17146;DHT22;8688;54.444;18.444;2023-12-20T05:22:48;4.00;1.00
17146;DHT22;8688;54.444;18.444;2023-12-20T05:25:16;4.10;1.00
17146;DHT22;8688;54.444;18.444;2023-12-20T05:27:43;4.10;1.00
17146;DHT22;8688;54.444;18.444;2023-12-20T05:30:12;4.10;1.00
17146;DHT22;8688;54.444;18.444;2023-12-20T05:32:41;4.10;1.00
17146;DHT22;8688;54.444;18.444;2023-12-20T05:35:09;4.20;1.00
17146;DHT22;8688;54.444;18.444;2023-12-20T05:37:36;4.10;1.00
17146;DHT22;8688;54.444;18.444;2023-12-20T05:40:05;4.20;1.00
17146;DHT22;8688;54.444;18.444;2023-12-20T05:42:36;4.20;1.00
17146;DHT22;8688;54.444;18.444;2023-12-20T05:45:04;4.20;1.00
17146;DHT22;8688;54.444;18.444;2023-12-20T05:47:31;4.20;1.00
17146;DHT22;8688;54.444;18.444;2023-12-20T05:50:00;4.20;1.00
17146;DHT22;8688;54.444;18.444;2023-12-20T05:52:28;4.20;1.00
17146;DHT22;8688;54.444;18.444;2023-12-20T05:54:56;4.20;1.00
17146;DHT22;8688;54.444;18.444;2023-12-20T05:57:27;4.20;1.00
17146;DHT22;8688;54.444;18.444;2023-12-20T05:59:55;4.20;1.00
17146;DHT22;8688;54.444;18.444;2023-12-20T06:02:23;4.20;1.00
17146;DHT22;8688;54.444;18.444;2023-12-20T06:04:50;4.20;1.00
17146;DHT22;8688;54.444;18.444;2023-12-20T06:07:19;4.20;1.00
17146;DHT22;8688;54.444;18.444;2023-12-20T06:09:47;4.20;1.00
17146;DHT22;8688;54.444;18.444;2023-12-20T06:12:14;4.20;1.00
17146;DHT22;8688;54.444;18.444;2023-12-20T06:14:42;4.20;1.00
17146;DHT22;8688;54.444;18.444;2023-12-20T06:17:09;4.20;1.00
17146;DHT22;8688;54.444;18.444;2023-12-20T06:19:37;4.20;1.00
17146;DHT22;8688;54.444;18.444;2023-12-20T06:22:04;4.20;1.00
17146;DHT22;8688;54.444;18.444;2023-12-20T06:24:33;4.10;1.00
17146;DHT22;8688;54.444;18.444;2023-12-20T06:27:01;4.10;1.00
17146;DHT22;8688;54.444;18.444;2023-12-20T06:29:28;4.10;1.00
17146;DHT22;8688;54.444;18.444;2023-12-20T06:31:57;4.00;1.00
17146;DHT22;8688;54.444;18.444;2023-12-20T06:34:24;4.00;1.00
17146;DHT22;8688;54.444;18.444;2023-12-20T06:36:51;3.90;1.00
17146;DHT22;8688;54.444;18.444;2023-12-20T06:39:19;3.90;1.00
17146;DHT22;8688;54.444;18.444;2023-12-20T06:41:48;3.80;1.00
17146;DHT22;8688;54.444;18.444;2023-12-20T06:44:16;3.70;1.00
17146;DHT22;8688;54.444;18.444;2023-12-20T06:46:44;3.70;1.00
17146;DHT22;8688;54.444;18.444;2023-12-20T06:49:11;3.60;1.00
17146;DHT22;8688;54.444;18.444;2023-12-20T06:51:39;3.60;1.00
17146;DHT22;8688;54.444;18.444;2023-12-20T06:54:06;3.60;1.00
17146;DHT22;8688;54.444;18.444;2023-12-20T06:56:34;3.60;1.00
17146;DHT22;8688;54.444;18.444;2023-12-20T06:59:03;3.50;1.00
17146;DHT22;8688;54.444;18.444;2023-12-20T07:01:30;3.50;1.00
17146;DHT22;8688;54.444;18.444;2023-12-20T07:03:58;3.50;1.00
17146;DHT22;8688;54.444;18.444;2023-12-20T07:06:25;3.50;1.00
17146;DHT22;8688;54.444;18.444;2023-12-20T07:08:53;3.50;1.00
17146;DHT22;8688;54.444;18.444;2023-12-20T07:11:20;3.50;1.00
17146;DHT22;8688;54.444;18.444;2023-12-20T07:13:47;3.50;1.00
17146;DHT22;8688;54.444;18.444;2023-12-20T07:16:17;3.50;1.00
17146;DHT22;8688;54.444;18.444;2023-12-20T07:18:44;3.50;1.00
17146;DHT22;8688;54.444;18.444;2023-12-20T07:21:11;3.50;1.00
17146;DHT22;8688;54.444;18.444;2023-12-20T07:23:39;3.40;1.00
17146;DHT22;8688;54.444;18.444;2023-12-20T07:26:07;3.40;1.00
17146;DHT22;8688;54.444;18.444;2023-12-20T07:28:34;3.40;1.00
17146;DHT22;8688;54.444;18.444;2023-12-20T07:31:02;3.40;1.00
17146;DHT22;8688;54.444;18.444;2023-12-20T07:33:31;3.40;1.00
17146;DHT22;8688;54.444;18.444;2023-12-20T07:35:59;3.40;1.00
17146;DHT22;8688;54.444;18.444;2023-12-20T07:38:28;3.40;1.00
17146;DHT22;8688;54.444;18.444;2023-12-20T07:40:55;3.40;1.00
17146;DHT22;8688;54.444;18.444;2023-12-20T07:43:23;3.40;1.00
17146;DHT22;8688;54.444;18.444;2023-12-20T07:45:50;3.40;1.00
17146;DHT22;8688;54.444;18.444;2023-12-20T07:48:18;3.40;1.00
17146;DHT22;8688;54.444;18.444;2023-12-20T07:50:46;3.40;1.00
17146;DHT22;8688;54.444;18.444;2023-12-20T07:53:14;3.40;1.00
17146;DHT22;8688;54.444;18.444;2023-12-20T07:55:42;3.40;1.00
17146;DHT22;8688;54.444;18.444;2023-12-20T07:58:09;3.40;1.00
17146;DHT22;8688;54.444;18.444;2023-12-20T08:00:37;3.40;1.00
17146;DHT22;8688;54.444;18.444;2023-12-20T08:03:05;3.40;1.00
17146;DHT22;8688;54.444;18.444;2023-12-20T08:05:32;3.40;1.00
17146;DHT22;8688;54.444;18.444;2023-12-20T08:08:02;3.40;1.00
17146;DHT22;8688;54.444;18.444;2023-12-20T08:10:29;3.50;1.00
17146;DHT22;8688;54.444;18.444;2023-12-20T08:12:56;3.50;1.00
17146;DHT22;8688;54.444;18.444;2023-12-20T08:15:24;3.50;1.00
17146;DHT22;8688;54.444;18.444;2023-12-20T08:17:52;3.50;1.00
17146;DHT22;8688;54.444;18.444;2023-12-20T08:20:20;3.50;1.00
17146;DHT22;8688;54.444;18.444;2023-12-20T08:22:47;3.60;1.00
17146;DHT22;8688;54.444;18.444;2023-12-20T08:25:17;3.60;1.00
17146;DHT22;8688;54.444;18.444;2023-12-20T08:27:47;3.70;1.00
17146;DHT22;8688;54.444;18.444;2023-12-20T08:30:14;3.80;1.00
17146;DHT22;8688;54.444;18.444;2023-12-20T08:32:43;3.90;1.00
17146;DHT22;8688;54.444;18.444;2023-12-20T08:35:10;4.00;1.00
17146;DHT22;8688;54.444;18.444;2023-12-20T08:37:37;4.00;1.00
17146;DHT22;8688;54.444;18.444;2023-12-20T08:40:06;4.10;1.00
17146;DHT22;8688;54.444;18.444;2023-12-20T08:42:35;4.20;1.00
17146;DHT22;8688;54.444;18.444;2023-12-20T08:45:03;4.20;1.00
17146;DHT22;8688;54.444;18.444;2023-12-20T08:47:31;4.30;1.00
17146;DHT22;8688;54.444;18.444;2023-12-20T08:49:58;4.40;1.00
17146;DHT22;8688;54.444;18.444;2023-12-20T08:52:28;4.40;1.00
17146;DHT22;8688;54.444;18.444;2023-12-20T08:54:56;4.40;1.00
17146;DHT22;8688;54.444;18.444;2023-12-20T08:57:23;4.50;1.00
17146;DHT22;8688;54.444;18.444;2023-12-20T08:59:52;4.50;1.00
17146;DHT22;8688;54.444;18.444;2023-12-20T09:02:20;4.50;1.00
17146;DHT22;8688;54.444;18.444;2023-12-20T09:04:47;4.50;1.00
17146;DHT22;8688;54.444;18.444;2023-12-20T09:07:24;4.50;1.00
17146;DHT22;8688;54.444;18.444;2023-12-20T09:09:52;4.50;1.00
17146;DHT22;8688;54.444;18.444;2023-12-20T09:12:20;4.50;1.00
17146;DHT22;8688;54.444;18.444;2023-12-20T09:14:48;4.50;1.00
17146;DHT22;8688;54.444;18.444;2023-12-20T09:17:18;4.50;1.00
17146;DHT22;8688;54.444;18.444;2023-12-20T09:19:46;4.50;1.00
17146;DHT22;8688;54.444;18.444;2023-12-20T09:22:14;4.50;1.00
17146;DHT22;8688;54.444;18.444;2023-12-20T09:24:41;4.50;1.00
17146;DHT22;8688;54.444;18.444;2023-12-20T09:27:09;4.50;1.00
17146;DHT22;8688;54.444;18.444;2023-12-20T09:29:36;4.60;1.00
17146;DHT22;8688;54.444;18.444;2023-12-20T09:32:04;4.60;1.00
17146;DHT22;8688;54.444;18.444;2023-12-20T09:34:33;4.70;1.00
17146;DHT22;8688;54.444;18.444;2023-12-20T09:37:01;4.70;1.00
17146;DHT22;8688;54.444;18.444;2023-12-20T09:39:29;4.80;1.00
17146;DHT22;8688;54.444;18.444;2023-12-20T09:42:01;4.80;1.00
17146;DHT22;8688;54.444;18.444;2023-12-20T09:44:28;4.80;1.00
17146;DHT22;8688;54.444;18.444;2023-12-20T09:46:57;4.80;1.00
17146;DHT22;8688;54.444;18.444;2023-12-20T09:49:25;4.90;1.00
17146;DHT22;8688;54.444;18.444;2023-12-20T09:51:56;4.90;1.00
17146;DHT22;8688;54.444;18.444;2023-12-20T09:54:24;5.00;1.00
17146;DHT22;8688;54.444;18.444;2023-12-20T09:56:52;5.00;1.00
17146;DHT22;8688;54.444;18.444;2023-12-20T09:59:19;5.00;1.00
17146;DHT22;8688;54.444;18.444;2023-12-20T10:01:48;5.00;1.00
17146;DHT22;8688;54.444;18.444;2023-12-20T10:04:15;5.00;1.00
17146;DHT22;8688;54.444;18.444;2023-12-20T10:06:44;5.00;1.00
17146;DHT22;8688;54.444;18.444;2023-12-20T10:09:13;5.00;1.00
17146;DHT22;8688;54.444;18.444;2023-12-20T10:11:40;5.00;1.00
17146;DHT22;8688;54.444;18.444;2023-12-20T10:14:08;4.90;1.00
17146;DHT22;8688;54.444;18.444;2023-12-20T10:16:38;4.90;1.00
17146;DHT22;8688;54.444;18.444;2023-12-20T10:19:05;4.90;1.00
17146;DHT22;8688;54.444;18.444;2023-12-20T10:21:33;4.90;1.00
17146;DHT22;8688;54.444;18.444;2023-12-20T10:24:01;5.00;1.00
17146;DHT22;8688;54.444;18.444;2023-12-20T10:26:30;4.90;1.00
17146;DHT22;8688;54.444;18.444;2023-12-20T10:29:00;5.00;1.00
17146;DHT22;8688;54.444;18.444;2023-12-20T10:31:30;5.00;1.00
17146;DHT22;8688;54.444;18.444;2023-12-20T10:33:58;5.00;1.00
17146;DHT22;8688;54.444;18.444;2023-12-20T10:36:27;4.90;1.00
17146;DHT22;8688;54.444;18.444;2023-12-20T10:38:58;4.90;1.00
17146;DHT22;8688;54.444;18.444;2023-12-20T10:41:30;4.90;1.00
17146;DHT22;8688;54.444;18.444;2023-12-20T10:43:59;4.90;1.00
17146;DHT22;8688;54.444;18.444;2023-12-20T10:46:27;5.00;1.00
17146;DHT22;8688;54.444;18.444;2023-12-20T10:48:56;5.00;1.00
17146;DHT22;8688;54.444;18.444;2023-12-20T10:51:24;5.00;1.00
17146;DHT22;8688;54.444;18.444;2023-12-20T10:53:55;5.00;1.00
17146;DHT22;8688;54.444;18.444;2023-12-20T10:56:23;5.00;1.00
17146;DHT22;8688;54.444;18.444;2023-12-20T10:58:52;5.00;1.00
17146;DHT22;8688;54.444;18.444;2023-12-20T11:01:20;5.00;1.00
17146;DHT22;8688;54.444;18.444;2023-12-20T11:03:50;5.10;1.00
17146;DHT22;8688;54.444;18.444;2023-12-20T11:06:29;5.10;1.00
17146;DHT22;8688;54.444;18.444;2023-12-20T11:09:10;5.10;1.00
17146;DHT22;8688;54.444;18.444;2023-12-20T11:11:52;5.10;1.00
17146;DHT22;8688;54.444;18.444;2023-12-20T11:14:29;5.20;1.00
17146;DHT22;8688;54.444;18.444;2023-12-20T11:17:07;5.10;1.00
17146;DHT22;8688;54.444;18.444;2023-12-20T11:19:37;5.20;1.00
17146;DHT22;8688;54.444;18.444;2023-12-20T11:22:04;5.20;1.00
17146;DHT22;8688;54.444;18.444;2023-12-20T11:24:33;5.20;1.00
17146;DHT22;8688;54.444;18.444;2023-12-20T11:27:04;5.20;1.00
17146;DHT22;8688;54.444;18.444;2023-12-20T11:29:34;5.20;1.00
17146;DHT22;8688;54.444;18.444;2023-12-20T11:32:03;5.20;1.00
17146;DHT22;8688;54.444;18.444;2023-12-20T11:34:32;5.30;1.00
17146;DHT22;8688;54.444;18.444;2023-12-20T11:37:01;5.30;1.00
17146;DHT22;8688;54.444;18.444;2023-12-20T11:39:31;5.20;1.00
17146;DHT22;8688;54.444;18.444;2023-12-20T11:42:04;5.20;1.00
17146;DHT22;8688;54.444;18.444;2023-12-20T11:44:33;5.20;1.00
17146;DHT22;8688;54.444;18.444;2023-12-20T11:47:01;5.20;1.00
17146;DHT22;8688;54.444;18.444;2023-12-20T11:49:29;5.20;1.00
17146;DHT22;8688;54.444;18.444;2023-12-20T11:51:56;5.20;1.00
17146;DHT22;8688;54.444;18.444;2023-12-20T11:54:24;5.20;1.00
17146;DHT22;8688;54.444;18.444;2023-12-20T11:56:51;5.20;1.00
17146;DHT22;8688;54.444;18.444;2023-12-20T11:59:19;5.20;1.00
17146;DHT22;8688;54.444;18.444;2023-12-20T12:01:50;5.10;1.00
17146;DHT22;8688;54.444;18.444;2023-12-20T12:04:18;5.10;1.00
17146;DHT22;8688;54.444;18.444;2023-12-20T12:06:46;5.10;1.00
17146;DHT22;8688;54.444;18.444;2023-12-20T12:09:13;5.20;1.00
17146;DHT22;8688;54.444;18.444;2023-12-20T12:11:41;5.10;1.00
17146;DHT22;8688;54.444;18.444;2023-12-20T12:14:09;5.20;1.00
17146;DHT22;8688;54.444;18.444;2023-12-20T12:16:37;5.20;1.00
17146;DHT22;8688;54.444;18.444;2023-12-20T12:19:05;5.10;1.00
17146;DHT22;8688;54.444;18.444;2023-12-20T12:21:33;5.20;1.00
17146;DHT22;8688;54.444;18.444;2023-12-20T12:24:07;5.20;1.00
17146;DHT22;8688;54.444;18.444;2023-12-20T12:26:35;5.10;1.00
17146;DHT22;8688;54.444;18.444;2023-12-20T12:29:02;5.10;1.00
17146;DHT22;8688;54.444;18.444;2023-12-20T12:31:30;5.20;1.00
17146;DHT22;8688;54.444;18.444;2023-12-20T12:33:58;5.10;1.00
17146;DHT22;8688;54.444;18.444;2023-12-20T12:36:28;5.10;1.00
17146;DHT22;8688;54.444;18.444;2023-12-20T12:38:56;5.10;1.00
17146;DHT22;8688;54.444;18.444;2023-12-20T12:41:24;5.10;1.00
17146;DHT22;8688;54.444;18.444;2023-12-20T12:43:52;5.20;1.00
17146;DHT22;8688;54.444;18.444;2023-12-20T12:46:19;5.10;1.00
17146;DHT22;8688;54.444;18.444;2023-12-20T12:48:47;5.20;1.00
17146;DHT22;8688;54.444;18.444;2023-12-20T12:51:16;5.20;1.00
17146;DHT22;8688;54.444;18.444;2023-12-20T12:53:44;5.10;1.00
17146;DHT22;8688;54.444;18.444;2023-12-20T12:56:13;5.10;1.00
17146;DHT22;8688;54.444;18.444;2023-12-20T12:58:41;5.10;1.00
17146;DHT22;8688;54.444;18.444;2023-12-20T13:01:08;5.10;1.00
17146;DHT22;8688;54.444;18.444;2023-12-20T13:03:36;5.10;1.00
17146;DHT22;8688;54.444;18.444;2023-12-20T13:06:04;5.10;1.00
17146;DHT22;8688;54.444;18.444;2023-12-20T13:08:32;5.00;1.00
17146;DHT22;8688;54.444;18.444;2023-12-20T13:11:01;5.00;1.00
17146;DHT22;8688;54.444;18.444;2023-12-20T13:13:30;5.00;1.00
17146;DHT22;8688;54.444;18.444;2023-12-20T13:15:57;5.00;1.00
17146;DHT22;8688;54.444;18.444;2023-12-20T13:18:25;5.00;1.00
17146;DHT22;8688;54.444;18.444;2023-12-20T13:20:52;5.00;1.00
17146;DHT22;8688;54.444;18.444;2023-12-20T13:23:19;5.00;1.00
17146;DHT22;8688;54.444;18.444;2023-12-20T13:25:47;5.00;1.00
17146;DHT22;8688;54.444;18.444;2023-12-20T13:28:16;5.10;1.00
17146;DHT22;8688;54.444;18.444;2023-12-20T13:30:44;5.10;1.00
17146;DHT22;8688;54.444;18.444;2023-12-20T13:33:11;5.10;1.00
17146;DHT22;8688;54.444;18.444;2023-12-20T13:35:39;5.10;1.00
17146;DHT22;8688;54.444;18.444;2023-12-20T13:38:06;5.10;1.00
17146;DHT22;8688;54.444;18.444;2023-12-20T13:40:34;5.10;1.00
17146;DHT22;8688;54.444;18.444;2023-12-20T13:43:02;5.10;1.00
17146;DHT22;8688;54.444;18.444;2023-12-20T13:45:31;5.10;1.00
17146;DHT22;8688;54.444;18.444;2023-12-20T13:47:59;5.10;1.00
17146;DHT22;8688;54.444;18.444;2023-12-20T13:50:26;5.00;1.00
17146;DHT22;8688;54.444;18.444;2023-12-20T13:52:55;5.00;1.00
17146;DHT22;8688;54.444;18.444;2023-12-20T13:55:22;5.00;1.00
17146;DHT22;8688;54.444;18.444;2023-12-20T13:57:51;5.00;1.00
17146;DHT22;8688;54.444;18.444;2023-12-20T14:00:19;5.00;1.00
17146;DHT22;8688;54.444;18.444;2023-12-20T14:02:48;5.00;1.00
17146;DHT22;8688;54.444;18.444;2023-12-20T14:05:16;5.00;1.00
17146;DHT22;8688;54.444;18.444;2023-12-20T14:07:44;4.90;1.00
17146;DHT22;8688;54.444;18.444;2023-12-20T14:10:12;4.90;1.00
17146;DHT22;8688;54.444;18.444;2023-12-20T14:12:40;4.90;1.00
17146;DHT22;8688;54.444;18.444;2023-12-20T14:15:08;4.80;1.00
17146;DHT22;8688;54.444;18.444;2023-12-20T14:17:37;4.80;1.00
17146;DHT22;8688;54.444;18.444;2023-12-20T14:20:06;4.90;1.00
17146;DHT22;8688;54.444;18.444;2023-12-20T14:22:34;4.80;1.00
17146;DHT22;8688;54.444;18.444;2023-12-20T14:25:03;4.80;1.00
17146;DHT22;8688;54.444;18.444;2023-12-20T14:27:32;4.70;1.00
17146;DHT22;8688;54.444;18.444;2023-12-20T14:29:59;4.70;1.00
17146;DHT22;8688;54.444;18.444;2023-12-20T14:32:27;4.70;1.00
17146;DHT22;8688;54.444;18.444;2023-12-20T14:34:55;4.70;1.00
17146;DHT22;8688;54.444;18.444;2023-12-20T14:37:26;4.70;1.00
17146;DHT22;8688;54.444;18.444;2023-12-20T14:39:54;4.70;1.00
17146;DHT22;8688;54.444;18.444;2023-12-20T14:42:21;4.70;1.00
17146;DHT22;8688;54.444;18.444;2023-12-20T14:44:49;4.70;1.00
17146;DHT22;8688;54.444;18.444;2023-12-20T14:47:18;4.80;1.00
17146;DHT22;8688;54.444;18.444;2023-12-20T14:49:45;4.80;1.00
17146;DHT22;8688;54.444;18.444;2023-12-20T14:52:13;4.80;1.00
17146;DHT22;8688;54.444;18.444;2023-12-20T14:54:42;4.80;1.00
17146;DHT22;8688;54.444;18.444;2023-12-20T14:57:10;4.80;1.00
17146;DHT22;8688;54.444;18.444;2023-12-20T14:59:37;4.80;1.00
17146;DHT22;8688;54.444;18.444;2023-12-20T15:02:05;4.80;1.00
17146;DHT22;8688;54.444;18.444;2023-12-20T15:04:32;4.80;1.00
17146;DHT22;8688;54.444;18.444;2023-12-20T15:07:00;4.80;1.00
17146;DHT22;8688;54.444;18.444;2023-12-20T15:09:28;4.80;1.00
17146;DHT22;8688;54.444;18.444;2023-12-20T15:11:57;4.80;1.00
17146;DHT22;8688;54.444;18.444;2023-12-20T15:14:26;4.70;1.00
17146;DHT22;8688;54.444;18.444;2023-12-20T15:16:55;4.70;1.00
17146;DHT22;8688;54.444;18.444;2023-12-20T15:19:23;4.70;1.00
17146;DHT22;8688;54.444;18.444;2023-12-20T15:21:51;4.70;1.00
17146;DHT22;8688;54.444;18.444;2023-12-20T15:24:19;4.70;1.00
17146;DHT22;8688;54.444;18.444;2023-12-20T15:26:53;4.80;1.00
17146;DHT22;8688;54.444;18.444;2023-12-20T15:29:22;4.80;1.00
17146;DHT22;8688;54.444;18.444;2023-12-20T15:31:50;4.70;1.00
17146;DHT22;8688;54.444;18.444;2023-12-20T15:34:18;4.70;1.00
17146;DHT22;8688;54.444;18.444;2023-12-20T15:36:46;4.70;1.00
17146;DHT22;8688;54.444;18.444;2023-12-20T15:39:13;4.70;1.00
17146;DHT22;8688;54.444;18.444;2023-12-20T15:41:41;4.70;1.00
17146;DHT22;8688;54.444;18.444;2023-12-20T15:44:08;4.70;1.00
17146;DHT22;8688;54.444;18.444;2023-12-20T15:46:38;4.70;1.00
17146;DHT22;8688;54.444;18.444;2023-12-20T15:49:06;4.80;1.00
17146;DHT22;8688;54.444;18.444;2023-12-20T15:51:37;4.70;1.00
17146;DHT22;8688;54.444;18.444;2023-12-20T15:54:04;4.80;1.00
17146;DHT22;8688;54.444;18.444;2023-12-20T15:56:34;4.60;1.00
17146;DHT22;8688;54.444;18.444;2023-12-20T15:59:02;4.50;1.00
17146;DHT22;8688;54.444;18.444;2023-12-20T16:01:30;4.30;1.00
17146;DHT22;8688;54.444;18.444;2023-12-20T16:03:59;4.20;1.00
17146;DHT22;8688;54.444;18.444;2023-12-20T16:06:26;4.20;1.00